Fresh Pond, New York
Current Conditions -  °F | °C
As of 10:21 AM on Wednesday 26 Nov 2014 (Local Time) from KLGA Reporting Station
Ice Pellets Ice Pellets  
Wind Chill: 29°   Ceiling: 700
Heat Index: 36°   Visibility: 1.7mi
Dew Point: 34°   Wind: 8mph
Humidity: 93%   Direction: 20°NNE
Pressure: 30.16"   Gusts: NA
Location:  40.7008°N, 73.8892°W
Report Text: KLGA 261521Z 02007KT 1 3/4SM -RAPL BR BKN007 BKN010 OVC013 02/01 A3016 RMK AO2 SFC VIS 2 P0005
Loading
Personal Weather Stations






























Interactive Weather Map New forecast layout! Learn more

10-Day Weather Forecast

Advertisements
Track Severe Weather on mobile